createdAt,value
2017-08-27T00:01:05.952Z,0
2017-08-27T00:02:07.834Z,0
2017-08-27T00:03:09.722Z,0
2017-08-27T00:04:11.624Z,0
2017-08-27T00:05:13.447Z,0
2017-08-27T00:06:15.282Z,0
2017-08-27T00:07:17.168Z,0
2017-08-27T00:08:19.060Z,0
2017-08-27T00:09:20.950Z,0
2017-08-27T00:10:35.108Z,0
2017-08-27T00:11:36.994Z,0
2017-08-27T00:12:38.882Z,0
2017-08-27T00:13:40.770Z,0
2017-08-27T00:14:42.597Z,0
2017-08-27T00:15:44.429Z,0
2017-08-27T00:16:46.320Z,0
2017-08-27T00:17:48.202Z,0
2017-08-27T00:18:50.092Z,0
2017-08-27T00:20:04.253Z,0
2017-08-27T00:21:06.140Z,0
2017-08-27T00:22:08.031Z,0
2017-08-27T00:23:09.916Z,0
2017-08-27T00:24:11.749Z,0
2017-08-27T00:25:13.584Z,0
2017-08-27T00:26:15.478Z,0
2017-08-27T00:27:17.367Z,0
2017-08-27T00:28:19.254Z,0
2017-08-27T00:29:33.423Z,0
2017-08-27T00:30:35.309Z,0
2017-08-27T00:31:37.205Z,0
2017-08-27T00:32:39.093Z,0
2017-08-27T00:33:40.931Z,0
2017-08-27T00:34:42.753Z,0
2017-08-27T00:35:44.610Z,0
2017-08-27T00:36:46.467Z,0
2017-08-27T00:37:48.295Z,0
2017-08-27T00:39:02.454Z,0
2017-08-27T00:40:04.339Z,0
2017-08-27T00:41:06.237Z,0
2017-08-27T00:42:08.138Z,0
2017-08-27T00:43:09.949Z,0
2017-08-27T00:44:11.770Z,0
2017-08-27T00:45:13.658Z,0
2017-08-27T00:46:15.545Z,0
2017-08-27T00:47:17.434Z,0
2017-08-27T00:48:31.644Z,0
2017-08-27T00:49:33.532Z,0
2017-08-27T00:50:35.418Z,0
2017-08-27T00:51:37.308Z,0
2017-08-27T00:52:39.129Z,0
2017-08-27T00:53:40.965Z,0
2017-08-27T00:54:42.851Z,0
2017-08-27T00:55:44.739Z,0
2017-08-27T00:56:46.639Z,0
2017-08-27T00:58:00.802Z,0
2017-08-27T00:59:02.689Z,0
2017-08-27T01:00:04.577Z,0
2017-08-27T01:01:06.464Z,0
2017-08-27T01:02:08.289Z,0
2017-08-27T01:03:10.122Z,0
2017-08-27T01:04:12.006Z,0
2017-08-27T01:05:13.907Z,0
2017-08-27T01:06:15.801Z,0
2017-08-27T01:07:29.956Z,0
2017-08-27T01:08:31.842Z,0
2017-08-27T01:09:33.739Z,0
2017-08-27T01:10:35.627Z,0
2017-08-27T01:11:37.451Z,0
2017-08-27T01:12:39.286Z,0
2017-08-27T01:13:41.185Z,0
2017-08-27T01:14:43.073Z,0
2017-08-27T01:15:44.962Z,0
2017-08-27T01:16:59.133Z,0
2017-08-27T01:18:01.020Z,0
2017-08-27T01:19:02.910Z,0
2017-08-27T01:20:04.799Z,0
2017-08-27T01:21:06.626Z,0
2017-08-27T01:22:08.452Z,0
2017-08-27T01:23:10.347Z,0
2017-08-27T01:24:12.236Z,0
2017-08-27T01:25:14.123Z,0
2017-08-27T01:26:28.294Z,0
2017-08-27T01:27:30.181Z,0
2017-08-27T01:28:32.079Z,0
2017-08-27T01:29:33.965Z,0
2017-08-27T01:30:35.787Z,0
2017-08-27T01:31:37.605Z,0
2017-08-27T01:32:39.501Z,0
2017-08-27T01:33:41.389Z,0
2017-08-27T01:34:43.272Z,0
2017-08-27T01:35:57.448Z,0
2017-08-27T01:36:59.328Z,0
2017-08-27T01:38:01.215Z,0
2017-08-27T01:39:03.101Z,0
2017-08-27T01:40:04.924Z,0
2017-08-27T01:41:06.744Z,0
2017-08-27T01:42:08.632Z,0
2017-08-27T01:43:10.523Z,0
2017-08-27T01:44:12.409Z,0
2017-08-27T01:45:26.565Z,0
2017-08-27T01:46:28.453Z,0
2017-08-27T01:47:30.348Z,0
2017-08-27T01:48:32.248Z,0
2017-08-27T01:49:34.057Z,0
2017-08-27T01:50:35.877Z,0
2017-08-27T01:51:37.770Z,0
2017-08-27T01:52:39.654Z,0
2017-08-27T01:53:41.540Z,0
2017-08-27T01:54:55.699Z,0
2017-08-27T01:55:57.586Z,0
2017-08-27T01:56:59.475Z,0
2017-08-27T01:58:01.361Z,0
2017-08-27T01:59:03.196Z,0
2017-08-27T02:00:05.014Z,0
2017-08-27T02:01:06.901Z,0
2017-08-27T02:02:08.787Z,0
2017-08-27T02:03:10.634Z,0
2017-08-27T02:04:24.828Z,0
2017-08-27T02:05:26.713Z,0
2017-08-27T02:06:28.599Z,0
2017-08-27T02:07:30.485Z,0
2017-08-27T02:08:32.310Z,0
2017-08-27T02:09:34.131Z,0
2017-08-27T02:10:36.020Z,0
2017-08-27T02:11:37.901Z,0
2017-08-27T02:12:39.785Z,0
2017-08-27T02:13:53.942Z,0
2017-08-27T02:14:55.827Z,0
2017-08-27T02:15:57.716Z,0
2017-08-27T02:16:59.602Z,0
2017-08-27T02:18:01.438Z,0
2017-08-27T02:19:03.257Z,0
2017-08-27T02:20:05.144Z,0
2017-08-27T02:21:07.029Z,0
2017-08-27T02:22:08.915Z,0
2017-08-27T02:23:23.078Z,0
2017-08-27T02:24:24.960Z,0
2017-08-27T02:25:26.845Z,0
2017-08-27T02:26:28.731Z,0
2017-08-27T02:27:30.555Z,0
2017-08-27T02:28:32.373Z,0
2017-08-27T02:29:34.260Z,0
2017-08-27T02:30:36.149Z,0
2017-08-27T02:31:38.033Z,0
2017-08-27T02:32:52.191Z,0
2017-08-27T02:33:54.077Z,0
2017-08-27T02:34:55.977Z,0
2017-08-27T02:35:57.859Z,0
2017-08-27T02:36:59.684Z,0
2017-08-27T02:38:01.518Z,0
2017-08-27T02:39:03.404Z,0
2017-08-27T02:40:05.290Z,0
2017-08-27T02:41:07.177Z,0
2017-08-27T02:42:21.332Z,0
2017-08-27T02:43:23.217Z,0
2017-08-27T02:44:25.104Z,0
2017-08-27T02:45:26.988Z,0
2017-08-27T02:46:28.812Z,0
2017-08-27T02:47:30.636Z,0
2017-08-27T02:48:32.524Z,0
2017-08-27T02:49:34.410Z,0
2017-08-27T02:50:36.293Z,0
2017-08-27T02:51:50.454Z,0
2017-08-27T02:52:52.338Z,0
2017-08-27T02:53:54.229Z,0
2017-08-27T02:54:56.114Z,0
2017-08-27T02:55:57.959Z,0
2017-08-27T02:56:59.763Z,0
2017-08-27T02:58:01.652Z,0
2017-08-27T02:59:03.536Z,0
2017-08-27T03:00:05.424Z,0
2017-08-27T03:01:19.584Z,0
2017-08-27T03:02:21.467Z,0
2017-08-27T03:03:23.363Z,0
2017-08-27T03:04:25.245Z,0
2017-08-27T03:05:27.080Z,0
2017-08-27T03:06:28.914Z,0
2017-08-27T03:07:30.796Z,0
2017-08-27T03:08:32.691Z,0
2017-08-27T03:09:34.576Z,0
2017-08-27T03:10:48.733Z,0
2017-08-27T03:11:50.619Z,0
2017-08-27T03:12:52.506Z,0
2017-08-27T03:13:54.391Z,0
2017-08-27T03:14:56.224Z,0
2017-08-27T03:15:58.053Z,0
2017-08-27T03:16:59.951Z,0
2017-08-27T03:18:01.837Z,0
2017-08-27T03:19:03.723Z,0
2017-08-27T03:20:17.880Z,0
2017-08-27T03:21:19.779Z,0
2017-08-27T03:22:21.661Z,0
2017-08-27T03:23:23.547Z,0
2017-08-27T03:24:25.372Z,0
2017-08-27T03:25:27.191Z,0
2017-08-27T03:26:29.086Z,0
2017-08-27T03:27:30.969Z,0
2017-08-27T03:28:32.863Z,0
2017-08-27T03:29:47.072Z,0
2017-08-27T03:30:48.957Z,0
2017-08-27T03:31:50.842Z,0
2017-08-27T03:32:52.739Z,0
2017-08-27T03:33:54.562Z,0
2017-08-27T03:34:56.392Z,0
2017-08-27T03:35:58.279Z,0
2017-08-27T03:37:00.163Z,0
2017-08-27T03:38:02.045Z,0
2017-08-27T03:39:16.202Z,0
2017-08-27T03:40:18.087Z,0
2017-08-27T03:41:19.984Z,0
2017-08-27T03:42:21.870Z,0
2017-08-27T03:43:23.694Z,0
2017-08-27T03:44:25.527Z,0
2017-08-27T03:45:27.412Z,0
2017-08-27T03:46:29.298Z,0
2017-08-27T03:47:31.182Z,0
2017-08-27T03:48:45.342Z,0
2017-08-27T03:49:47.230Z,0
2017-08-27T03:50:49.119Z,0
2017-08-27T03:51:51.006Z,0
2017-08-27T03:52:52.831Z,0
2017-08-27T03:53:54.652Z,0
2017-08-27T03:54:56.550Z,0
2017-08-27T03:55:58.436Z,0
2017-08-27T03:57:00.319Z,0
2017-08-27T03:58:14.489Z,0
2017-08-27T03:59:16.380Z,0
2017-08-27T04:00:18.275Z,0
2017-08-27T04:01:20.162Z,0
2017-08-27T04:02:21.998Z,0
2017-08-27T04:03:23.819Z,0
2017-08-27T04:04:25.705Z,0
2017-08-27T04:05:27.596Z,0
2017-08-27T04:06:29.481Z,0
2017-08-27T04:07:43.644Z,0
2017-08-27T04:08:45.531Z,0
2017-08-27T04:09:47.418Z,0
2017-08-27T04:10:49.305Z,0
2017-08-27T04:11:51.131Z,5
2017-08-27T04:12:52.954Z,5
2017-08-27T04:13:54.853Z,5
2017-08-27T04:14:56.742Z,5
2017-08-27T04:15:58.626Z,5
2017-08-27T04:17:12.788Z,5
2017-08-27T04:18:14.679Z,5
2017-08-27T04:19:16.564Z,5
2017-08-27T04:20:18.452Z,10
2017-08-27T04:21:20.280Z,10
2017-08-27T04:22:22.099Z,10
2017-08-27T04:23:24.000Z,10
2017-08-27T04:24:25.892Z,10
2017-08-27T04:25:27.778Z,10
2017-08-27T04:26:41.998Z,10
2017-08-27T04:27:43.886Z,10
2017-08-27T04:28:45.783Z,10
2017-08-27T04:29:47.682Z,10
2017-08-27T04:30:49.509Z,10
2017-08-27T04:31:51.354Z,15
2017-08-27T04:32:53.254Z,15
2017-08-27T04:33:55.144Z,15
2017-08-27T04:34:57.031Z,15
2017-08-27T04:36:11.204Z,15
2017-08-27T04:37:13.093Z,20
2017-08-27T04:38:14.983Z,20
2017-08-27T04:39:16.873Z,20
2017-08-27T04:40:18.700Z,25
2017-08-27T04:41:20.523Z,30
2017-08-27T04:42:22.413Z,30
2017-08-27T04:43:24.304Z,30
2017-08-27T04:44:26.192Z,35
2017-08-27T04:45:40.353Z,35
2017-08-27T04:46:42.243Z,35
2017-08-27T04:47:44.143Z,40
2017-08-27T04:48:46.035Z,40
2017-08-27T04:49:47.864Z,40
2017-08-27T04:50:49.689Z,40
2017-08-27T04:51:51.579Z,40
2017-08-27T04:52:53.471Z,40
2017-08-27T04:53:55.359Z,40
2017-08-27T04:55:09.523Z,40
2017-08-27T04:56:11.415Z,35
2017-08-27T04:57:13.303Z,35
2017-08-27T04:58:15.194Z,40
2017-08-27T04:59:17.022Z,45
2017-08-27T05:00:18.849Z,45
2017-08-27T05:01:20.739Z,50
2017-08-27T05:02:22.632Z,50
2017-08-27T05:03:24.523Z,50
2017-08-27T05:04:38.685Z,50
2017-08-27T05:05:40.574Z,45
2017-08-27T05:06:42.465Z,45
2017-08-27T05:07:44.366Z,40
2017-08-27T05:08:46.188Z,45
2017-08-27T05:09:48.015Z,45
2017-08-27T05:10:49.911Z,50
2017-08-27T05:11:51.795Z,50
2017-08-27T05:12:53.684Z,55
2017-08-27T05:14:07.857Z,65
2017-08-27T05:15:09.746Z,65
2017-08-27T05:16:11.645Z,65
2017-08-27T05:17:13.537Z,65
2017-08-27T05:18:15.367Z,70
2017-08-27T05:19:17.192Z,70
2017-08-27T05:20:19.085Z,75
2017-08-27T05:21:20.975Z,80
2017-08-27T05:22:22.864Z,85
2017-08-27T05:23:37.086Z,85
2017-08-27T05:24:38.980Z,85
2017-08-27T05:25:40.871Z,85
2017-08-27T05:26:42.761Z,90
2017-08-27T05:27:44.590Z,95
2017-08-27T05:28:46.420Z,95
2017-08-27T05:29:48.308Z,90
2017-08-27T05:30:50.197Z,90
2017-08-27T05:31:52.088Z,85
2017-08-27T05:33:06.253Z,90
2017-08-27T05:34:08.143Z,85
2017-08-27T05:35:10.034Z,75
2017-08-27T05:36:11.923Z,65
2017-08-27T05:37:13.750Z,60
2017-08-27T05:38:15.585Z,60
2017-08-27T05:39:17.477Z,60
2017-08-27T05:40:19.367Z,60
2017-08-27T05:41:21.259Z,65
2017-08-27T05:42:35.423Z,55
2017-08-27T05:43:37.313Z,50
2017-08-27T05:44:39.212Z,50
2017-08-27T05:45:41.108Z,55
2017-08-27T05:46:42.937Z,60
2017-08-27T05:47:44.764Z,65
2017-08-27T05:48:46.656Z,65
2017-08-27T05:49:48.542Z,75
2017-08-27T05:50:50.431Z,80
2017-08-27T05:52:04.595Z,85
2017-08-27T05:53:06.488Z,90
2017-08-27T05:54:08.387Z,85
2017-08-27T05:55:10.289Z,80
2017-08-27T05:56:12.117Z,80
2017-08-27T05:57:13.941Z,85
2017-08-27T05:58:15.835Z,85
2017-08-27T05:59:17.722Z,80
2017-08-27T06:00:19.623Z,75
2017-08-27T06:01:33.837Z,70
2017-08-27T06:02:35.729Z,70
2017-08-27T06:03:37.620Z,75
2017-08-27T06:04:39.510Z,80
2017-08-27T06:05:41.344Z,80
2017-08-27T06:06:43.167Z,85
2017-08-27T06:07:45.063Z,95
2017-08-27T06:08:46.954Z,105
2017-08-27T06:09:48.847Z,115
2017-08-27T06:11:03.013Z,120
2017-08-27T06:12:04.906Z,120
2017-08-27T06:13:06.797Z,125
2017-08-27T06:14:09.003Z,125
2017-08-27T06:15:10.801Z,125
2017-08-27T06:16:12.628Z,125
2017-08-27T06:17:14.526Z,125
2017-08-27T06:18:16.434Z,125
2017-08-27T06:19:18.327Z,125
2017-08-27T06:20:32.630Z,135
2017-08-27T06:21:34.524Z,135
2017-08-27T06:22:36.425Z,140
2017-08-27T06:23:38.316Z,135
2017-08-27T06:24:40.146Z,135
2017-08-27T06:25:41.977Z,135
2017-08-27T06:26:43.868Z,140
2017-08-27T06:27:45.759Z,145
2017-08-27T06:28:47.653Z,150
2017-08-27T06:30:01.908Z,155
2017-08-27T06:31:03.701Z,160
2017-08-27T06:32:05.537Z,165
2017-08-27T06:33:07.423Z,175
2017-08-27T06:34:09.320Z,180
2017-08-27T06:35:11.183Z,180
2017-08-27T06:36:13.026Z,190
2017-08-27T06:37:14.854Z,195
2017-08-27T06:38:16.747Z,200
2017-08-27T06:39:31.031Z,205
2017-08-27T06:40:32.921Z,210
2017-08-27T06:41:34.814Z,210
2017-08-27T06:42:36.709Z,215
2017-08-27T06:43:38.540Z,220
2017-08-27T06:44:40.370Z,225
2017-08-27T06:45:42.275Z,235
2017-08-27T06:46:44.165Z,235
2017-08-27T06:47:46.605Z,235
2017-08-27T06:49:00.763Z,240
2017-08-27T06:50:02.658Z,245
2017-08-27T06:51:04.551Z,245
2017-08-27T06:52:06.443Z,255
2017-08-27T06:53:08.275Z,255
2017-08-27T06:54:10.104Z,250
2017-08-27T06:55:12.029Z,245
2017-08-27T06:56:13.924Z,235
2017-08-27T06:57:15.817Z,230
2017-08-27T06:58:29.995Z,225
2017-08-27T06:59:31.888Z,220
2017-08-27T07:00:33.781Z,210
2017-08-27T07:01:35.675Z,210
2017-08-27T07:02:37.508Z,205
2017-08-27T07:03:39.363Z,195
2017-08-27T07:04:41.244Z,190
2017-08-27T07:05:43.144Z,190
2017-08-27T07:06:45.043Z,185
2017-08-27T07:07:59.212Z,185
2017-08-27T07:09:01.105Z,165
2017-08-27T07:10:03.000Z,170
2017-08-27T07:11:04.894Z,180
2017-08-27T07:12:06.728Z,190
2017-08-27T07:13:08.557Z,180
2017-08-27T07:14:10.458Z,185
2017-08-27T07:15:12.356Z,190
2017-08-27T07:16:14.252Z,195
2017-08-27T07:17:28.416Z,200
2017-08-27T07:18:30.331Z,200
2017-08-27T07:19:32.211Z,205
2017-08-27T07:20:34.107Z,215
2017-08-27T07:21:35.942Z,210
2017-08-27T07:22:37.776Z,210
2017-08-27T07:23:39.684Z,215
2017-08-27T07:24:41.579Z,230
2017-08-27T07:25:43.472Z,245
2017-08-27T07:26:57.638Z,225
2017-08-27T07:27:59.533Z,205
2017-08-27T07:29:01.424Z,215
2017-08-27T07:30:03.319Z,220
2017-08-27T07:31:05.153Z,220
2017-08-27T07:32:06.982Z,225
2017-08-27T07:33:08.907Z,220
2017-08-27T07:34:10.776Z,220
2017-08-27T07:35:12.670Z,205
2017-08-27T07:36:26.889Z,195
2017-08-27T07:37:28.788Z,195
2017-08-27T07:38:30.676Z,195
2017-08-27T07:39:32.582Z,200
2017-08-27T07:40:34.417Z,200
2017-08-27T07:41:36.246Z,195
2017-08-27T07:42:38.141Z,195
2017-08-27T07:43:40.039Z,195
2017-08-27T07:44:41.933Z,200
2017-08-27T07:45:56.105Z,190
2017-08-27T07:46:57.994Z,185
2017-08-27T07:47:59.887Z,180
2017-08-27T07:49:01.781Z,185
2017-08-27T07:50:03.613Z,190
2017-08-27T07:51:05.443Z,195
2017-08-27T07:52:07.344Z,195
2017-08-27T07:53:09.236Z,205
2017-08-27T07:54:11.131Z,230
2017-08-27T07:55:25.305Z,245
2017-08-27T07:56:27.202Z,250
2017-08-27T07:57:29.090Z,245
2017-08-27T07:58:30.986Z,250
2017-08-27T07:59:32.821Z,250
2017-08-27T08:00:34.649Z,230
2017-08-27T08:01:36.553Z,205
2017-08-27T08:02:38.445Z,190
2017-08-27T08:03:40.340Z,185
2017-08-27T08:04:54.511Z,185
2017-08-27T08:05:56.410Z,180
2017-08-27T08:06:58.308Z,180
2017-08-27T08:08:00.197Z,175
2017-08-27T08:09:02.033Z,180
2017-08-27T08:10:03.895Z,175
2017-08-27T08:11:05.933Z,175
2017-08-27T08:12:07.848Z,175
2017-08-27T08:13:09.727Z,175
2017-08-27T08:14:23.895Z,185
2017-08-27T08:15:25.804Z,180
2017-08-27T08:16:28.067Z,190
2017-08-27T08:17:30.276Z,205
2017-08-27T08:18:32.135Z,215
2017-08-27T08:19:33.986Z,215
2017-08-27T08:20:35.859Z,210
2017-08-27T08:21:37.753Z,205
2017-08-27T08:22:39.652Z,200
2017-08-27T08:23:53.821Z,185
2017-08-27T08:24:55.715Z,175
2017-08-27T08:25:57.606Z,180
2017-08-27T08:26:59.505Z,185
2017-08-27T08:28:01.334Z,185
2017-08-27T08:29:03.164Z,180
2017-08-27T08:30:05.075Z,175
2017-08-27T08:31:06.958Z,180
2017-08-27T08:32:08.853Z,185
2017-08-27T08:33:23.020Z,195
2017-08-27T08:34:24.914Z,205
2017-08-27T08:35:26.809Z,215
2017-08-27T08:36:28.707Z,225
2017-08-27T08:37:30.539Z,235
2017-08-27T08:38:32.371Z,265
2017-08-27T08:39:34.279Z,265
2017-08-27T08:40:36.162Z,250
2017-08-27T08:41:38.060Z,225
2017-08-27T08:42:52.233Z,210
2017-08-27T08:43:54.125Z,220
2017-08-27T08:44:56.029Z,230
2017-08-27T08:45:57.920Z,225
2017-08-27T08:46:59.755Z,230
2017-08-27T08:48:01.584Z,240
2017-08-27T08:49:03.493Z,240
2017-08-27T08:50:05.392Z,230
2017-08-27T08:51:07.573Z,220
2017-08-27T08:52:21.706Z,195
2017-08-27T08:53:23.600Z,180
2017-08-27T08:54:25.493Z,190
2017-08-27T08:55:27.394Z,200
2017-08-27T08:56:29.230Z,205
2017-08-27T08:57:31.061Z,220
2017-08-27T08:58:32.960Z,230
2017-08-27T08:59:34.858Z,235
2017-08-27T09:00:36.752Z,225
2017-08-27T09:01:50.919Z,230
2017-08-27T09:02:52.816Z,235
2017-08-27T09:03:54.714Z,225
2017-08-27T09:04:56.612Z,220
2017-08-27T09:05:58.448Z,215
2017-08-27T09:07:00.290Z,220
2017-08-27T09:08:02.186Z,220
2017-08-27T09:09:04.077Z,210
2017-08-27T09:10:05.971Z,205
2017-08-27T09:11:20.136Z,205
2017-08-27T09:12:22.032Z,210
2017-08-27T09:13:23.950Z,215
2017-08-27T09:14:25.834Z,210
2017-08-27T09:15:27.668Z,230
2017-08-27T09:16:29.506Z,225
2017-08-27T09:17:31.399Z,235
2017-08-27T09:18:33.299Z,225
2017-08-27T09:19:35.190Z,225
2017-08-27T09:20:49.361Z,230
2017-08-27T09:21:51.259Z,235
2017-08-27T09:22:53.155Z,235
2017-08-27T09:23:55.054Z,235
2017-08-27T09:24:56.892Z,230
2017-08-27T09:25:58.724Z,195
2017-08-27T09:27:00.622Z,180
2017-08-27T09:28:02.517Z,170
2017-08-27T09:29:04.419Z,165
2017-08-27T09:30:18.579Z,180
2017-08-27T09:31:20.476Z,175
2017-08-27T09:32:22.371Z,160
2017-08-27T09:33:24.284Z,160
2017-08-27T09:34:26.117Z,165
2017-08-27T09:35:27.950Z,175
2017-08-27T09:36:29.846Z,185
2017-08-27T09:37:31.743Z,205
2017-08-27T09:38:33.636Z,225
2017-08-27T09:39:47.811Z,240
2017-08-27T09:40:49.704Z,265
2017-08-27T09:41:51.604Z,275
2017-08-27T09:42:53.499Z,265
2017-08-27T09:43:55.330Z,265
2017-08-27T09:44:57.163Z,270
2017-08-27T09:45:59.057Z,265
2017-08-27T09:47:00.958Z,260
2017-08-27T09:48:02.852Z,265
2017-08-27T09:49:17.094Z,255
2017-08-27T09:50:18.979Z,235
2017-08-27T09:51:20.878Z,230
2017-08-27T09:52:22.774Z,235
2017-08-27T09:53:24.608Z,235
2017-08-27T09:54:26.451Z,230
2017-08-27T09:55:28.351Z,230
2017-08-27T09:56:30.239Z,215
2017-08-27T09:57:32.131Z,205
2017-08-27T09:58:46.313Z,190
2017-08-27T09:59:48.206Z,200
2017-08-27T10:00:50.105Z,215
2017-08-27T10:01:52.019Z,210
2017-08-27T10:02:53.837Z,205
2017-08-27T10:03:55.668Z,195
2017-08-27T10:04:57.564Z,200
2017-08-27T10:05:59.464Z,200
2017-08-27T10:07:01.355Z,200
2017-08-27T10:08:15.526Z,200
2017-08-27T10:09:17.423Z,215
2017-08-27T10:10:19.329Z,225
2017-08-27T10:11:21.215Z,220
2017-08-27T10:12:23.056Z,225
2017-08-27T10:13:24.893Z,235
2017-08-27T10:14:26.791Z,245
2017-08-27T10:15:28.695Z,245
2017-08-27T10:16:30.584Z,245
2017-08-27T10:17:44.752Z,240
2017-08-27T10:18:46.648Z,245
2017-08-27T10:19:48.546Z,260
2017-08-27T10:20:50.446Z,265
2017-08-27T10:21:52.279Z,265
2017-08-27T10:22:54.112Z,275
2017-08-27T10:23:56.042Z,280
2017-08-27T10:24:57.917Z,280
2017-08-27T10:25:59.813Z,290
2017-08-27T10:27:13.980Z,280
2017-08-27T10:28:15.872Z,275
2017-08-27T10:29:17.768Z,285
2017-08-27T10:30:19.682Z,285
2017-08-27T10:31:21.522Z,290
2017-08-27T10:32:23.360Z,280
2017-08-27T10:33:25.250Z,260
2017-08-27T10:34:27.147Z,250
2017-08-27T10:35:29.046Z,245
2017-08-27T10:36:43.213Z,260
2017-08-27T10:37:45.112Z,270
2017-08-27T10:38:47.018Z,275
2017-08-27T10:39:48.898Z,280
2017-08-27T10:40:50.738Z,280
2017-08-27T10:41:52.579Z,265
2017-08-27T10:42:54.410Z,255
2017-08-27T10:43:56.309Z,255
2017-08-27T10:44:58.199Z,255
2017-08-27T10:46:12.422Z,235
2017-08-27T10:47:14.341Z,235
2017-08-27T10:48:16.227Z,245
2017-08-27T10:49:18.129Z,250
2017-08-27T10:50:19.966Z,255
2017-08-27T10:51:21.800Z,265
2017-08-27T10:52:23.709Z,265
2017-08-27T10:53:25.596Z,265
2017-08-27T10:54:27.485Z,265
2017-08-27T10:55:41.655Z,270
2017-08-27T10:56:43.554Z,285
2017-08-27T10:57:45.454Z,285
2017-08-27T10:58:47.345Z,285
2017-08-27T10:59:49.191Z,285
2017-08-27T11:00:51.016Z,290
2017-08-27T11:01:52.916Z,290
2017-08-27T11:02:54.806Z,290
2017-08-27T11:03:56.704Z,295
2017-08-27T11:05:10.871Z,275
2017-08-27T11:06:12.765Z,265
2017-08-27T11:07:14.656Z,260
2017-08-27T11:08:16.550Z,260
2017-08-27T11:09:18.390Z,255
2017-08-27T11:10:20.225Z,250
2017-08-27T11:11:22.125Z,240
2017-08-27T11:12:24.019Z,235
2017-08-27T11:13:25.918Z,230
2017-08-27T11:14:40.084Z,230
2017-08-27T11:15:41.977Z,230
2017-08-27T11:16:43.868Z,230
2017-08-27T11:17:45.766Z,235
2017-08-27T11:18:47.596Z,240
2017-08-27T11:19:49.425Z,235
2017-08-27T11:20:51.319Z,235
2017-08-27T11:21:53.219Z,230
2017-08-27T11:22:55.104Z,225
2017-08-27T11:24:09.279Z,215
2017-08-27T11:25:11.169Z,210
2017-08-27T11:26:13.069Z,210
2017-08-27T11:27:14.961Z,215
2017-08-27T11:28:16.795Z,210
2017-08-27T11:29:18.623Z,205
2017-08-27T11:30:20.478Z,210
2017-08-27T11:31:22.372Z,205
2017-08-27T11:32:24.267Z,205
2017-08-27T11:33:38.444Z,210
2017-08-27T11:34:40.346Z,215
2017-08-27T11:35:42.230Z,220
2017-08-27T11:36:44.141Z,220
2017-08-27T11:37:45.974Z,215
2017-08-27T11:38:47.797Z,210
2017-08-27T11:39:49.691Z,215
2017-08-27T11:40:51.580Z,215
2017-08-27T11:41:53.475Z,215
2017-08-27T11:43:07.640Z,225
2017-08-27T11:44:09.530Z,240
2017-08-27T11:45:11.432Z,250
2017-08-27T11:46:13.330Z,265
2017-08-27T11:47:15.169Z,270
2017-08-27T11:48:16.994Z,280
2017-08-27T11:49:18.897Z,280
2017-08-27T11:50:20.790Z,285
2017-08-27T11:51:22.680Z,290
2017-08-27T11:52:36.847Z,290
2017-08-27T11:53:38.763Z,290
2017-08-27T11:54:40.655Z,290
2017-08-27T11:55:42.579Z,290
2017-08-27T11:56:44.421Z,285
2017-08-27T11:57:46.255Z,285
2017-08-27T11:58:48.176Z,300
2017-08-27T11:59:50.046Z,315
2017-08-27T12:00:51.943Z,325
2017-08-27T12:02:06.112Z,330
2017-08-27T12:03:08.009Z,335
2017-08-27T12:04:09.897Z,335
2017-08-27T12:05:11.794Z,335
2017-08-27T12:06:13.629Z,330
2017-08-27T12:07:15.461Z,335
2017-08-27T12:08:17.359Z,335
2017-08-27T12:09:19.254Z,335
2017-08-27T12:10:21.150Z,330
2017-08-27T12:11:35.320Z,330
2017-08-27T12:12:37.213Z,315
2017-08-27T12:13:39.109Z,305
2017-08-27T12:14:41.006Z,300
2017-08-27T12:15:42.840Z,310
2017-08-27T12:16:44.677Z,310
2017-08-27T12:17:46.575Z,305
2017-08-27T12:18:48.477Z,300
2017-08-27T12:19:50.370Z,300
2017-08-27T12:21:04.543Z,305
2017-08-27T12:22:06.437Z,315
2017-08-27T12:23:08.331Z,320
2017-08-27T12:24:10.228Z,325
2017-08-27T12:25:12.086Z,330
2017-08-27T12:26:13.914Z,325
2017-08-27T12:27:15.833Z,315
2017-08-27T12:28:17.713Z,310
2017-08-27T12:29:19.607Z,315
2017-08-27T12:30:33.780Z,310
2017-08-27T12:31:35.671Z,300
2017-08-27T12:32:37.568Z,295
2017-08-27T12:33:39.462Z,290
2017-08-27T12:34:41.313Z,280
2017-08-27T12:35:43.139Z,250
2017-08-27T12:36:45.028Z,250
2017-08-27T12:37:46.932Z,240
2017-08-27T12:38:48.852Z,240
2017-08-27T12:40:03.153Z,240
2017-08-27T12:41:05.023Z,255
2017-08-27T12:42:06.919Z,270
2017-08-27T12:43:08.823Z,280
2017-08-27T12:44:10.659Z,285
2017-08-27T12:45:12.499Z,275
2017-08-27T12:46:14.412Z,245
2017-08-27T12:47:16.300Z,230
2017-08-27T12:48:18.189Z,215
2017-08-27T12:49:32.357Z,200
2017-08-27T12:50:34.259Z,190
2017-08-27T12:51:36.156Z,205
2017-08-27T12:52:38.060Z,210
2017-08-27T12:53:39.905Z,210
2017-08-27T12:54:41.743Z,210
2017-08-27T12:55:43.646Z,190
2017-08-27T12:56:45.540Z,185
2017-08-27T12:57:47.429Z,180
2017-08-27T12:59:01.598Z,180
2017-08-27T13:00:03.499Z,180
2017-08-27T13:01:05.390Z,170
2017-08-27T13:02:07.288Z,170
2017-08-27T13:03:09.129Z,165
2017-08-27T13:04:10.957Z,170
2017-08-27T13:05:12.856Z,175
2017-08-27T13:06:14.758Z,180
2017-08-27T13:07:16.648Z,190
2017-08-27T13:08:30.824Z,210
2017-08-27T13:09:32.731Z,220
2017-08-27T13:10:34.615Z,230
2017-08-27T13:11:36.527Z,220
2017-08-27T13:12:38.359Z,225
2017-08-27T13:13:40.194Z,225
2017-08-27T13:14:42.095Z,230
2017-08-27T13:15:43.989Z,225
2017-08-27T13:16:45.888Z,220
2017-08-27T13:18:00.061Z,220
2017-08-27T13:19:01.957Z,200
2017-08-27T13:20:03.860Z,180
2017-08-27T13:21:05.755Z,170
2017-08-27T13:22:07.593Z,170
2017-08-27T13:23:09.426Z,160
2017-08-27T13:24:11.326Z,160
2017-08-27T13:25:13.178Z,155
2017-08-27T13:26:15.016Z,155
2017-08-27T13:27:29.188Z,155
2017-08-27T13:28:31.074Z,160
2017-08-27T13:29:32.974Z,170
2017-08-27T13:30:34.870Z,180
2017-08-27T13:31:36.705Z,175
2017-08-27T13:32:38.540Z,175
2017-08-27T13:33:40.447Z,185
2017-08-27T13:34:42.341Z,195
2017-08-27T13:35:44.239Z,205
2017-08-27T13:36:58.411Z,220
2017-08-27T13:38:00.302Z,220
2017-08-27T13:39:02.203Z,220
2017-08-27T13:40:04.093Z,220
2017-08-27T13:41:05.946Z,235
2017-08-27T13:42:07.782Z,250
2017-08-27T13:43:09.681Z,260
2017-08-27T13:44:11.573Z,250
2017-08-27T13:45:13.465Z,240
2017-08-27T13:46:27.660Z,220
2017-08-27T13:47:29.537Z,200
2017-08-27T13:48:31.449Z,200
2017-08-27T13:49:33.344Z,205
2017-08-27T13:50:35.179Z,200
2017-08-27T13:51:36.999Z,195
2017-08-27T13:52:38.897Z,200
2017-08-27T13:53:40.794Z,205
2017-08-27T13:54:42.690Z,200
2017-08-27T13:55:56.862Z,200
2017-08-27T13:56:58.763Z,190
2017-08-27T13:58:00.657Z,190
2017-08-27T13:59:02.565Z,185
2017-08-27T14:00:04.401Z,185
2017-08-27T14:01:06.264Z,180
2017-08-27T14:02:08.148Z,175
2017-08-27T14:03:10.046Z,175
2017-08-27T14:04:11.902Z,170
2017-08-27T14:05:26.079Z,170
2017-08-27T14:06:27.982Z,180
2017-08-27T14:07:29.881Z,190
2017-08-27T14:08:31.790Z,190
2017-08-27T14:09:33.627Z,190
2017-08-27T14:10:35.456Z,190
2017-08-27T14:11:37.354Z,195
2017-08-27T14:12:39.255Z,195
2017-08-27T14:13:41.153Z,195
2017-08-27T14:14:55.323Z,190
2017-08-27T14:15:57.224Z,195
2017-08-27T14:16:59.127Z,195
2017-08-27T14:18:01.020Z,205
2017-08-27T14:19:02.863Z,210
2017-08-27T14:20:04.707Z,205
2017-08-27T14:21:06.597Z,205
2017-08-27T14:22:08.491Z,200
2017-08-27T14:23:10.383Z,200
2017-08-27T14:24:24.567Z,205
2017-08-27T14:25:26.462Z,205
2017-08-27T14:26:28.351Z,205
2017-08-27T14:27:30.255Z,210
2017-08-27T14:28:32.091Z,225
2017-08-27T14:29:33.915Z,225
2017-08-27T14:30:35.822Z,230
2017-08-27T14:31:37.705Z,235
2017-08-27T14:32:39.602Z,240
2017-08-27T14:33:53.773Z,245
2017-08-27T14:34:55.673Z,250
2017-08-27T14:35:57.581Z,255
2017-08-27T14:36:59.475Z,250
2017-08-27T14:38:01.309Z,240
2017-08-27T14:39:03.145Z,245
2017-08-27T14:40:05.651Z,245
2017-08-27T14:41:07.543Z,250
2017-08-27T14:42:09.444Z,250
2017-08-27T14:43:23.621Z,260
2017-08-27T14:44:25.514Z,255
2017-08-27T14:45:27.408Z,250
2017-08-27T14:46:29.314Z,250
2017-08-27T14:47:31.147Z,250
2017-08-27T14:48:32.980Z,250
2017-08-27T14:49:34.879Z,240
2017-08-27T14:50:36.871Z,235
2017-08-27T14:51:38.741Z,225
2017-08-27T14:52:52.908Z,220